Coloma, California
Current Conditions -  °F | °C
As of 4:55 PM on Friday 19 Dec 2014 (Local Time) from KPVF Reporting Station
Broken Clouds Broken Clouds  
Wind Chill: 40°   Ceiling: 3000
Heat Index: 45°   Visibility: 4mi
Dew Point: 41°   Wind: 9mph
Humidity: 87%   Direction: 120°ESE
Pressure: 30.14"   Gusts: NA
Location:  38.8°N, 120.89°W
Report Text: KPVF 200055Z AUTO 12008KT 4SM BKN030 BKN036 07/05 A3014 RMK AO1 P0010
Loading
Personal Weather Stations






























Interactive Weather Map New forecast layout! Learn more

10-Day Weather Forecast

Advertisements
Track Severe Weather on mobile